sensor_id;sensor_type;location;lat;lon;timestamp;P1;durP1;ratioP1;P2;durP2;ratioP2
51298;SDS011;37382;45.192;9.790;2023-07-13T03:45:06;12.90;;;6.60;;
51298;SDS011;37382;45.192;9.790;2023-07-13T03:47:34;12.13;;;6.65;;
51298;SDS011;37382;45.192;9.790;2023-07-13T03:50:04;12.13;;;7.57;;
51298;SDS011;37382;45.192;9.790;2023-07-13T03:52:32;14.43;;;8.60;;
51298;SDS011;37382;45.192;9.790;2023-07-13T03:55:00;20.42;;;8.55;;
51298;SDS011;37382;45.192;9.790;2023-07-13T03:57:28;16.05;;;9.65;;
51298;SDS011;37382;45.192;9.790;2023-07-13T03:59:57;17.45;;;9.68;;
51298;SDS011;37382;45.192;9.790;2023-07-13T04:02:25;10.57;;;7.10;;
51298;SDS011;37382;45.192;9.790;2023-07-13T04:04:53;21.33;;;6.22;;
51298;SDS011;37382;45.192;9.790;2023-07-13T04:07:23;18.60;;;8.15;;
51298;SDS011;37382;45.192;9.790;2023-07-13T04:09:52;50.25;;;12.45;;
51298;SDS011;37382;45.192;9.790;2023-07-13T04:12:19;12.85;;;6.63;;
51298;SDS011;37382;45.192;9.790;2023-07-13T04:14:48;11.35;;;6.82;;
51298;SDS011;37382;45.192;9.790;2023-07-13T04:17:15;17.45;;;6.30;;
51298;SDS011;37382;45.192;9.790;2023-07-13T04:19:43;11.98;;;6.53;;
51298;SDS011;37382;45.192;9.790;2023-07-13T04:22:11;7.15;;;6.15;;
51298;SDS011;37382;45.192;9.790;2023-07-13T04:24:39;13.50;;;7.05;;
51298;SDS011;37382;45.192;9.790;2023-07-13T04:27:08;12.82;;;6.80;;
51298;SDS011;37382;45.192;9.790;2023-07-13T04:29:35;10.82;;;6.85;;
51298;SDS011;37382;45.192;9.790;2023-07-13T04:32:03;11.13;;;6.75;;
51298;SDS011;37382;45.192;9.790;2023-07-13T04:34:31;16.20;;;6.43;;
51298;SDS011;37382;45.192;9.790;2023-07-13T04:36:58;13.07;;;6.90;;
51298;SDS011;37382;45.192;9.790;2023-07-13T04:39:26;12.63;;;6.45;;
51298;SDS011;37382;45.192;9.790;2023-07-13T04:41:53;10.18;;;6.43;;
51298;SDS011;37382;45.192;9.790;2023-07-13T04:44:22;15.52;;;6.80;;
51298;SDS011;37382;45.192;9.790;2023-07-13T04:46:50;12.60;;;7.03;;
51298;SDS011;37382;45.192;9.790;2023-07-13T04:49:17;14.73;;;7.20;;
51298;SDS011;37382;45.192;9.790;2023-07-13T04:51:45;12.43;;;7.05;;
51298;SDS011;37382;45.192;9.790;2023-07-13T04:54:12;11.75;;;6.45;;
51298;SDS011;37382;45.192;9.790;2023-07-13T04:56:40;12.98;;;6.53;;
51298;SDS011;37382;45.192;9.790;2023-07-13T04:59:07;12.25;;;6.32;;
51298;SDS011;37382;45.192;9.790;2023-07-13T05:01:35;15.20;;;6.57;;
51298;SDS011;37382;45.192;9.790;2023-07-13T05:04:02;20.40;;;7.30;;
51298;SDS011;37382;45.192;9.790;2023-07-13T05:06:30;15.23;;;6.70;;
51298;SDS011;37382;45.192;9.790;2023-07-13T05:08:58;12.32;;;6.72;;
51298;SDS011;37382;45.192;9.790;2023-07-13T05:11:27;12.52;;;6.70;;
51298;SDS011;37382;45.192;9.790;2023-07-13T05:13:54;9.27;;;6.05;;
51298;SDS011;37382;45.192;9.790;2023-07-13T05:16:22;16.25;;;7.30;;
51298;SDS011;37382;45.192;9.790;2023-07-13T05:18:49;13.00;;;7.18;;
51298;SDS011;37382;45.192;9.790;2023-07-13T05:21:17;10.70;;;7.07;;
51298;SDS011;37382;45.192;9.790;2023-07-13T05:23:45;12.48;;;7.25;;
51298;SDS011;37382;45.192;9.790;2023-07-13T05:26:13;13.77;;;6.82;;
51298;SDS011;37382;45.192;9.790;2023-07-13T05:28:40;11.73;;;7.55;;
51298;SDS011;37382;45.192;9.790;2023-07-13T05:31:09;20.20;;;7.38;;
51298;SDS011;37382;45.192;9.790;2023-07-13T05:33:38;12.65;;;6.88;;
51298;SDS011;37382;45.192;9.790;2023-07-13T05:36:06;14.60;;;7.03;;
51298;SDS011;37382;45.192;9.790;2023-07-13T05:38:34;12.73;;;7.00;;
51298;SDS011;37382;45.192;9.790;2023-07-13T05:41:02;10.85;;;6.80;;
51298;SDS011;37382;45.192;9.790;2023-07-13T05:43:32;15.18;;;6.10;;
51298;SDS011;37382;45.192;9.790;2023-07-13T05:46:00;16.98;;;6.28;;
51298;SDS011;37382;45.192;9.790;2023-07-13T05:48:28;15.88;;;7.50;;
51298;SDS011;37382;45.192;9.790;2023-07-13T05:50:55;12.70;;;6.75;;
51298;SDS011;37382;45.192;9.790;2023-07-13T05:53:23;13.85;;;6.10;;
51298;SDS011;37382;45.192;9.790;2023-07-13T05:55:51;12.00;;;6.68;;
51298;SDS011;37382;45.192;9.790;2023-07-13T05:58:22;12.90;;;6.65;;
51298;SDS011;37382;45.192;9.790;2023-07-13T06:00:57;10.15;;;6.20;;
51298;SDS011;37382;45.192;9.790;2023-07-13T06:03:26;14.18;;;6.20;;
51298;SDS011;37382;45.192;9.790;2023-07-13T06:05:54;10.02;;;6.05;;
51298;SDS011;37382;45.192;9.790;2023-07-13T06:08:22;17.00;;;6.10;;
51298;SDS011;37382;45.192;9.790;2023-07-13T06:10:50;11.20;;;6.80;;
51298;SDS011;37382;45.192;9.790;2023-07-13T06:13:17;16.65;;;6.50;;
51298;SDS011;37382;45.192;9.790;2023-07-13T06:15:49;18.45;;;6.85;;
51298;SDS011;37382;45.192;9.790;2023-07-13T06:20:45;11.57;;;6.78;;
51298;SDS011;37382;45.192;9.790;2023-07-13T06:23:13;15.40;;;6.70;;
51298;SDS011;37382;45.192;9.790;2023-07-13T06:25:40;9.85;;;6.22;;
51298;SDS011;37382;45.192;9.790;2023-07-13T06:28:08;14.65;;;7.00;;
51298;SDS011;37382;45.192;9.790;2023-07-13T06:30:37;18.63;;;7.63;;
51298;SDS011;37382;45.192;9.790;2023-07-13T06:33:06;13.70;;;7.72;;
51298;SDS011;37382;45.192;9.790;2023-07-13T06:35:34;18.33;;;6.85;;
51298;SDS011;37382;45.192;9.790;2023-07-13T06:38:01;22.92;;;7.45;;
51298;SDS011;37382;45.192;9.790;2023-07-13T06:40:29;20.17;;;7.00;;
51298;SDS011;37382;45.192;9.790;2023-07-13T06:42:58;15.95;;;7.13;;
51298;SDS011;37382;45.192;9.790;2023-07-13T06:45:26;11.30;;;6.50;;
51298;SDS011;37382;45.192;9.790;2023-07-13T06:47:54;16.77;;;7.82;;
51298;SDS011;37382;45.192;9.790;2023-07-13T06:50:22;20.92;;;8.07;;
51298;SDS011;37382;45.192;9.790;2023-07-13T06:52:49;17.13;;;7.93;;
51298;SDS011;37382;45.192;9.790;2023-07-13T06:55:17;20.23;;;6.80;;
51298;SDS011;37382;45.192;9.790;2023-07-13T06:57:45;17.92;;;6.53;;
51298;SDS011;37382;45.192;9.790;2023-07-13T07:00:12;16.33;;;7.32;;
51298;SDS011;37382;45.192;9.790;2023-07-13T07:02:40;16.15;;;6.40;;
51298;SDS011;37382;45.192;9.790;2023-07-13T07:05:08;11.10;;;5.95;;
51298;SDS011;37382;45.192;9.790;2023-07-13T07:07:35;13.15;;;5.85;;
51298;SDS011;37382;45.192;9.790;2023-07-13T07:10:03;11.88;;;6.03;;
51298;SDS011;37382;45.192;9.790;2023-07-13T07:12:31;12.10;;;5.15;;
51298;SDS011;37382;45.192;9.790;2023-07-13T07:14:59;11.30;;;5.63;;
51298;SDS011;37382;45.192;9.790;2023-07-13T07:17:26;12.25;;;5.07;;
51298;SDS011;37382;45.192;9.790;2023-07-13T07:19:54;12.30;;;5.18;;
51298;SDS011;37382;45.192;9.790;2023-07-13T07:22:22;19.48;;;5.00;;
51298;SDS011;37382;45.192;9.790;2023-07-13T07:24:49;11.50;;;4.57;;
51298;SDS011;37382;45.192;9.790;2023-07-13T07:27:17;9.05;;;4.93;;
51298;SDS011;37382;45.192;9.790;2023-07-13T07:29:48;15.95;;;5.03;;
51298;SDS011;37382;45.192;9.790;2023-07-13T07:32:35;8.15;;;4.32;;
51298;SDS011;37382;45.192;9.790;2023-07-13T07:35:06;17.90;;;4.82;;
51298;SDS011;37382;45.192;9.790;2023-07-13T07:37:34;8.00;;;4.72;;
51298;SDS011;37382;45.192;9.790;2023-07-13T07:40:05;11.55;;;5.00;;
51298;SDS011;37382;45.192;9.790;2023-07-13T07:42:36;14.13;;;4.50;;
51298;SDS011;37382;45.192;9.790;2023-07-13T07:45:03;11.45;;;4.90;;
51298;SDS011;37382;45.192;9.790;2023-07-13T07:47:31;11.63;;;5.40;;
51298;SDS011;37382;45.192;9.790;2023-07-13T07:49:59;11.63;;;5.47;;
51298;SDS011;37382;45.192;9.790;2023-07-13T07:52:26;13.05;;;7.80;;
51298;SDS011;37382;45.192;9.790;2023-07-13T07:54:54;15.48;;;7.13;;
51298;SDS011;37382;45.192;9.790;2023-07-13T07:57:41;11.35;;;6.70;;
51298;SDS011;37382;45.192;9.790;2023-07-13T08:00:12;17.17;;;5.68;;
51298;SDS011;37382;45.192;9.790;2023-07-13T08:02:43;10.23;;;4.80;;
51298;SDS011;37382;45.192;9.790;2023-07-13T08:07:44;9.43;;;4.90;;
51298;SDS011;37382;45.192;9.790;2023-07-13T08:10:12;9.73;;;5.00;;
51298;SDS011;37382;45.192;9.790;2023-07-13T08:12:40;13.32;;;5.13;;
51298;SDS011;37382;45.192;9.790;2023-07-13T08:17:39;17.85;;;5.40;;
51298;SDS011;37382;45.192;9.790;2023-07-13T08:20:08;11.52;;;5.43;;
51298;SDS011;37382;45.192;9.790;2023-07-13T08:22:36;15.27;;;5.57;;
51298;SDS011;37382;45.192;9.790;2023-07-13T08:25:04;11.38;;;5.28;;
51298;SDS011;37382;45.192;9.790;2023-07-13T08:27:32;11.93;;;5.43;;
51298;SDS011;37382;45.192;9.790;2023-07-13T08:29:59;10.82;;;5.43;;
51298;SDS011;37382;45.192;9.790;2023-07-13T08:32:27;18.83;;;5.80;;
51298;SDS011;37382;45.192;9.790;2023-07-13T08:34:54;11.38;;;5.07;;
51298;SDS011;37382;45.192;9.790;2023-07-13T08:37:22;8.27;;;5.40;;
51298;SDS011;37382;45.192;9.790;2023-07-13T08:39:49;14.93;;;5.78;;
51298;SDS011;37382;45.192;9.790;2023-07-13T08:47:39;10.45;;;5.47;;
51298;SDS011;37382;45.192;9.790;2023-07-13T08:50:12;16.00;;;5.47;;
51298;SDS011;37382;45.192;9.790;2023-07-13T08:52:42;15.40;;;5.22;;
51298;SDS011;37382;45.192;9.790;2023-07-13T08:55:18;16.65;;;5.68;;
51298;SDS011;37382;45.192;9.790;2023-07-13T08:57:50;16.10;;;4.80;;
51298;SDS011;37382;45.192;9.790;2023-07-13T09:00:24;16.85;;;5.50;;
51298;SDS011;37382;45.192;9.790;2023-07-13T09:03:00;15.05;;;4.90;;
51298;SDS011;37382;45.192;9.790;2023-07-13T09:05:31;17.08;;;5.30;;
51298;SDS011;37382;45.192;9.790;2023-07-13T09:10:59;9.65;;;4.30;;
51298;SDS011;37382;45.192;9.790;2023-07-13T09:13:42;14.35;;;5.45;;
51298;SDS011;37382;45.192;9.790;2023-07-13T09:16:15;11.02;;;5.07;;
51298;SDS011;37382;45.192;9.790;2023-07-13T09:18:47;13.68;;;5.00;;
51298;SDS011;37382;45.192;9.790;2023-07-13T09:21:20;10.38;;;5.03;;
51298;SDS011;37382;45.192;9.790;2023-07-13T09:23:53;14.23;;;4.85;;
51298;SDS011;37382;45.192;9.790;2023-07-13T09:26:25;31.15;;;5.65;;
51298;SDS011;37382;45.192;9.790;2023-07-13T09:28:58;17.95;;;5.22;;
51298;SDS011;37382;45.192;9.790;2023-07-13T09:31:33;16.52;;;4.80;;
51298;SDS011;37382;45.192;9.790;2023-07-13T09:34:08;21.30;;;4.57;;
51298;SDS011;37382;45.192;9.790;2023-07-13T09:36:38;17.83;;;4.93;;
51298;SDS011;37382;45.192;9.790;2023-07-13T09:44:34;16.20;;;4.03;;
51298;SDS011;37382;45.192;9.790;2023-07-13T09:47:03;13.07;;;3.72;;
51298;SDS011;37382;45.192;9.790;2023-07-13T09:49:43;16.77;;;3.70;;
51298;SDS011;37382;45.192;9.790;2023-07-13T09:52:13;16.45;;;3.88;;
51298;SDS011;37382;45.192;9.790;2023-07-13T09:54:46;17.15;;;4.40;;
51298;SDS011;37382;45.192;9.790;2023-07-13T09:57:22;11.55;;;3.65;;
51298;SDS011;37382;45.192;9.790;2023-07-13T10:00:00;16.30;;;4.18;;
51298;SDS011;37382;45.192;9.790;2023-07-13T10:02:32;6.30;;;3.47;;
51298;SDS011;37382;45.192;9.790;2023-07-13T10:05:02;6.78;;;4.13;;
51298;SDS011;37382;45.192;9.790;2023-07-13T10:07:39;13.90;;;4.55;;
51298;SDS011;37382;45.192;9.790;2023-07-13T10:10:15;10.85;;;3.72;;
51298;SDS011;37382;45.192;9.790;2023-07-13T10:12:48;12.38;;;4.05;;
51298;SDS011;37382;45.192;9.790;2023-07-13T10:15:19;12.27;;;4.40;;
51298;SDS011;37382;45.192;9.790;2023-07-13T10:17:52;11.15;;;4.40;;
51298;SDS011;37382;45.192;9.790;2023-07-13T10:20:22;7.57;;;3.92;;
51298;SDS011;37382;45.192;9.790;2023-07-13T10:23:11;9.43;;;4.75;;
51298;SDS011;37382;45.192;9.790;2023-07-13T10:25:48;12.05;;;3.88;;
51298;SDS011;37382;45.192;9.790;2023-07-13T10:28:23;7.13;;;4.30;;
51298;SDS011;37382;45.192;9.790;2023-07-13T10:30:56;8.60;;;4.80;;
51298;SDS011;37382;45.192;9.790;2023-07-13T10:33:28;7.68;;;4.70;;
51298;SDS011;37382;45.192;9.790;2023-07-13T10:36:05;17.10;;;4.63;;
51298;SDS011;37382;45.192;9.790;2023-07-13T10:38:46;8.38;;;5.07;;
51298;SDS011;37382;45.192;9.790;2023-07-13T10:41:19;11.05;;;4.70;;
51298;SDS011;37382;45.192;9.790;2023-07-13T10:43:53;9.93;;;4.90;;
51298;SDS011;37382;45.192;9.790;2023-07-13T10:46:25;11.00;;;5.07;;
51298;SDS011;37382;45.192;9.790;2023-07-13T10:48:59;11.10;;;5.15;;
51298;SDS011;37382;45.192;9.790;2023-07-13T10:51:31;10.55;;;4.63;;
51298;SDS011;37382;45.192;9.790;2023-07-13T10:54:16;8.75;;;4.85;;
51298;SDS011;37382;45.192;9.790;2023-07-13T10:56:50;7.03;;;4.40;;
51298;SDS011;37382;45.192;9.790;2023-07-13T10:59:26;9.70;;;3.60;;
51298;SDS011;37382;45.192;9.790;2023-07-13T11:02:15;10.60;;;3.20;;
51298;SDS011;37382;45.192;9.790;2023-07-13T11:04:56;8.30;;;3.60;;
51298;SDS011;37382;45.192;9.790;2023-07-13T11:07:28;11.88;;;4.07;;
51298;SDS011;37382;45.192;9.790;2023-07-13T11:10:00;5.35;;;2.90;;
51298;SDS011;37382;45.192;9.790;2023-07-13T11:15:15;10.68;;;2.90;;
51298;SDS011;37382;45.192;9.790;2023-07-13T11:17:57;12.25;;;3.70;;
51298;SDS011;37382;45.192;9.790;2023-07-13T11:20:31;5.47;;;2.70;;
51298;SDS011;37382;45.192;9.790;2023-07-13T11:23:07;12.73;;;3.72;;
51298;SDS011;37382;45.192;9.790;2023-07-13T11:25:44;9.98;;;3.00;;
51298;SDS011;37382;45.192;9.790;2023-07-13T11:33:45;8.18;;;3.80;;
51298;SDS011;37382;45.192;9.790;2023-07-13T11:36:23;19.98;;;3.70;;
51298;SDS011;37382;45.192;9.790;2023-07-13T11:41:34;8.23;;;3.72;;
51298;SDS011;37382;45.192;9.790;2023-07-13T11:44:07;7.13;;;3.50;;
51298;SDS011;37382;45.192;9.790;2023-07-13T11:46:43;10.40;;;3.00;;
51298;SDS011;37382;45.192;9.790;2023-07-13T11:49:18;7.57;;;2.53;;
51298;SDS011;37382;45.192;9.790;2023-07-13T11:51:50;11.00;;;3.80;;
51298;SDS011;37382;45.192;9.790;2023-07-13T11:57:22;6.75;;;2.45;;
51298;SDS011;37382;45.192;9.790;2023-07-13T11:59:51;7.45;;;3.05;;
51298;SDS011;37382;45.192;9.790;2023-07-13T12:04:56;6.65;;;3.80;;
51298;SDS011;37382;45.192;9.790;2023-07-13T12:07:27;7.03;;;3.40;;
51298;SDS011;37382;45.192;9.790;2023-07-13T12:10:03;6.13;;;2.60;;
51298;SDS011;37382;45.192;9.790;2023-07-13T12:13:03;13.20;;;3.83;;
51298;SDS011;37382;45.192;9.790;2023-07-13T12:15:37;9.85;;;3.40;;
51298;SDS011;37382;45.192;9.790;2023-07-13T12:18:14;10.20;;;4.35;;
51298;SDS011;37382;45.192;9.790;2023-07-13T12:20:43;12.52;;;4.07;;
51298;SDS011;37382;45.192;9.790;2023-07-13T12:25:52;9.98;;;4.18;;
51298;SDS011;37382;45.192;9.790;2023-07-13T12:33:59;12.23;;;5.07;;
51298;SDS011;37382;45.192;9.790;2023-07-13T12:36:30;8.90;;;6.30;;
51298;SDS011;37382;45.192;9.790;2023-07-13T12:39:00;10.15;;;5.40;;
51298;SDS011;37382;45.192;9.790;2023-07-13T12:41:32;8.82;;;4.95;;
51298;SDS011;37382;45.192;9.790;2023-07-13T12:44:00;7.47;;;4.45;;
51298;SDS011;37382;45.192;9.790;2023-07-13T12:46:28;10.80;;;5.32;;
51298;SDS011;37382;45.192;9.790;2023-07-13T12:48:57;9.05;;;4.95;;
51298;SDS011;37382;45.192;9.790;2023-07-13T12:51:43;11.40;;;5.78;;
51298;SDS011;37382;45.192;9.790;2023-07-13T12:54:17;12.48;;;5.78;;
51298;SDS011;37382;45.192;9.790;2023-07-13T12:56:49;12.00;;;5.82;;
51298;SDS011;37382;45.192;9.790;2023-07-13T12:59:21;10.27;;;6.32;;
51298;SDS011;37382;45.192;9.790;2023-07-13T13:01:50;9.65;;;5.93;;
51298;SDS011;37382;45.192;9.790;2023-07-13T13:04:18;11.25;;;6.30;;
51298;SDS011;37382;45.192;9.790;2023-07-13T13:06:49;14.50;;;4.75;;
51298;SDS011;37382;45.192;9.790;2023-07-13T13:09:28;15.93;;;5.30;;
51298;SDS011;37382;45.192;9.790;2023-07-13T13:11:56;12.93;;;4.38;;
51298;SDS011;37382;45.192;9.790;2023-07-13T13:14:25;12.38;;;4.35;;
51298;SDS011;37382;45.192;9.790;2023-07-13T13:16:53;8.50;;;4.35;;
51298;SDS011;37382;45.192;9.790;2023-07-13T13:19:25;9.10;;;4.18;;
51298;SDS011;37382;45.192;9.790;2023-07-13T13:21:55;8.93;;;3.20;;
51298;SDS011;37382;45.192;9.790;2023-07-13T13:24:26;13.60;;;4.53;;
51298;SDS011;37382;45.192;9.790;2023-07-13T13:26:56;13.63;;;3.88;;
51298;SDS011;37382;45.192;9.790;2023-07-13T13:29:25;14.50;;;3.40;;
51298;SDS011;37382;45.192;9.790;2023-07-13T13:31:54;13.05;;;3.22;;
51298;SDS011;37382;45.192;9.790;2023-07-13T13:34:22;7.90;;;3.20;;
51298;SDS011;37382;45.192;9.790;2023-07-13T13:36:52;8.05;;;3.70;;
51298;SDS011;37382;45.192;9.790;2023-07-13T13:39:36;10.60;;;2.38;;
51298;SDS011;37382;45.192;9.790;2023-07-13T13:42:04;5.53;;;1.90;;
51298;SDS011;37382;45.192;9.790;2023-07-13T13:44:32;11.25;;;2.67;;
51298;SDS011;37382;45.192;9.790;2023-07-13T13:47:00;14.65;;;2.08;;
51298;SDS011;37382;45.192;9.790;2023-07-13T13:49:29;5.72;;;2.25;;
51298;SDS011;37382;45.192;9.790;2023-07-13T13:51:58;5.85;;;2.10;;
51298;SDS011;37382;45.192;9.790;2023-07-13T13:54:26;13.60;;;2.00;;
51298;SDS011;37382;45.192;9.790;2023-07-13T13:56:54;14.88;;;2.25;;
51298;SDS011;37382;45.192;9.790;2023-07-13T13:59:23;5.20;;;2.17;;
51298;SDS011;37382;45.192;9.790;2023-07-13T14:01:52;8.13;;;1.95;;
51298;SDS011;37382;45.192;9.790;2023-07-13T14:04:20;9.27;;;1.88;;
51298;SDS011;37382;45.192;9.790;2023-07-13T14:06:49;14.70;;;2.25;;
51298;SDS011;37382;45.192;9.790;2023-07-13T14:09:17;13.05;;;2.15;;
51298;SDS011;37382;45.192;9.790;2023-07-13T14:11:48;6.93;;;1.95;;
51298;SDS011;37382;45.192;9.790;2023-07-13T14:16:48;14.10;;;2.63;;
51298;SDS011;37382;45.192;9.790;2023-07-13T14:19:22;14.00;;;2.58;;
51298;SDS011;37382;45.192;9.790;2023-07-13T14:21:50;12.35;;;2.38;;
51298;SDS011;37382;45.192;9.790;2023-07-13T14:24:20;10.63;;;2.58;;
51298;SDS011;37382;45.192;9.790;2023-07-13T14:26:49;9.15;;;2.42;;
51298;SDS011;37382;45.192;9.790;2023-07-13T14:29:18;11.18;;;2.65;;
51298;SDS011;37382;45.192;9.790;2023-07-13T14:31:50;6.68;;;2.30;;
51298;SDS011;37382;45.192;9.790;2023-07-13T14:34:20;7.93;;;2.25;;
51298;SDS011;37382;45.192;9.790;2023-07-13T14:36:48;7.15;;;2.10;;
51298;SDS011;37382;45.192;9.790;2023-07-13T14:39:19;12.27;;;2.42;;
51298;SDS011;37382;45.192;9.790;2023-07-13T14:41:53;10.55;;;2.20;;
51298;SDS011;37382;45.192;9.790;2023-07-13T14:44:29;13.20;;;2.40;;
51298;SDS011;37382;45.192;9.790;2023-07-13T14:46:59;10.65;;;2.47;;
51298;SDS011;37382;45.192;9.790;2023-07-13T14:52:08;10.88;;;2.80;;
51298;SDS011;37382;45.192;9.790;2023-07-13T14:54:38;13.43;;;2.90;;
51298;SDS011;37382;45.192;9.790;2023-07-13T14:57:11;7.13;;;2.50;;
51298;SDS011;37382;45.192;9.790;2023-07-13T14:59:40;6.63;;;2.55;;
51298;SDS011;37382;45.192;9.790;2023-07-13T15:02:26;13.23;;;2.88;;
51298;SDS011;37382;45.192;9.790;2023-07-13T15:04:57;17.33;;;2.80;;
51298;SDS011;37382;45.192;9.790;2023-07-13T15:07:25;10.27;;;2.63;;
51298;SDS011;37382;45.192;9.790;2023-07-13T15:09:53;11.50;;;2.90;;
51298;SDS011;37382;45.192;9.790;2023-07-13T15:12:21;13.18;;;3.08;;
51298;SDS011;37382;45.192;9.790;2023-07-13T15:14:49;14.23;;;2.90;;
51298;SDS011;37382;45.192;9.790;2023-07-13T15:17:26;11.25;;;2.85;;
51298;SDS011;37382;45.192;9.790;2023-07-13T15:20:00;11.30;;;2.83;;
51298;SDS011;37382;45.192;9.790;2023-07-13T15:22:28;12.98;;;2.88;;
51298;SDS011;37382;45.192;9.790;2023-07-13T15:24:56;11.88;;;2.80;;
51298;SDS011;37382;45.192;9.790;2023-07-13T15:27:27;11.50;;;3.35;;
51298;SDS011;37382;45.192;9.790;2023-07-13T15:29:55;12.30;;;2.53;;
51298;SDS011;37382;45.192;9.790;2023-07-13T15:32:23;10.98;;;2.90;;
51298;SDS011;37382;45.192;9.790;2023-07-13T15:34:51;19.48;;;2.92;;
51298;SDS011;37382;45.192;9.790;2023-07-13T15:37:19;11.90;;;2.40;;
51298;SDS011;37382;45.192;9.790;2023-07-13T15:39:47;7.72;;;2.00;;
51298;SDS011;37382;45.192;9.790;2023-07-13T15:42:15;9.05;;;2.50;;
51298;SDS011;37382;45.192;9.790;2023-07-13T15:44:43;11.05;;;3.22;;
51298;SDS011;37382;45.192;9.790;2023-07-13T15:47:11;14.82;;;2.90;;
51298;SDS011;37382;45.192;9.790;2023-07-13T15:49:41;12.03;;;3.20;;
51298;SDS011;37382;45.192;9.790;2023-07-13T15:52:19;11.00;;;3.07;;
51298;SDS011;37382;45.192;9.790;2023-07-13T15:54:50;9.23;;;2.30;;
51298;SDS011;37382;45.192;9.790;2023-07-13T15:57:18;10.60;;;2.78;;
51298;SDS011;37382;45.192;9.790;2023-07-13T15:59:47;12.18;;;2.80;;
51298;SDS011;37382;45.192;9.790;2023-07-13T16:02:16;8.90;;;2.58;;
51298;SDS011;37382;45.192;9.790;2023-07-13T16:04:46;9.52;;;2.70;;
51298;SDS011;37382;45.192;9.790;2023-07-13T16:07:15;14.27;;;3.20;;
51298;SDS011;37382;45.192;9.790;2023-07-13T16:09:45;12.20;;;3.10;;
51298;SDS011;37382;45.192;9.790;2023-07-13T16:12:14;12.30;;;3.50;;
51298;SDS011;37382;45.192;9.790;2023-07-13T16:14:42;12.67;;;3.20;;
51298;SDS011;37382;45.192;9.790;2023-07-13T16:17:13;9.68;;;2.90;;
51298;SDS011;37382;45.192;9.790;2023-07-13T16:19:41;17.75;;;3.00;;
51298;SDS011;37382;45.192;9.790;2023-07-13T16:22:13;9.13;;;2.75;;
51298;SDS011;37382;45.192;9.790;2023-07-13T16:24:43;12.68;;;3.80;;
51298;SDS011;37382;45.192;9.790;2023-07-13T16:27:12;12.32;;;3.65;;
51298;SDS011;37382;45.192;9.790;2023-07-13T16:29:40;8.50;;;2.95;;
51298;SDS011;37382;45.192;9.790;2023-07-13T16:32:12;15.82;;;3.60;;
51298;SDS011;37382;45.192;9.790;2023-07-13T16:34:42;19.05;;;3.65;;
51298;SDS011;37382;45.192;9.790;2023-07-13T16:37:18;10.45;;;3.50;;
51298;SDS011;37382;45.192;9.790;2023-07-13T16:39:51;16.52;;;3.17;;
51298;SDS011;37382;45.192;9.790;2023-07-13T16:42:24;13.80;;;3.67;;
51298;SDS011;37382;45.192;9.790;2023-07-13T16:44:52;14.73;;;2.97;;
51298;SDS011;37382;45.192;9.790;2023-07-13T16:47:22;8.77;;;3.10;;
51298;SDS011;37382;45.192;9.790;2023-07-13T16:54:48;10.68;;;3.08;;
51298;SDS011;37382;45.192;9.790;2023-07-13T16:57:21;12.40;;;3.15;;
51298;SDS011;37382;45.192;9.790;2023-07-13T17:00:01;10.07;;;2.90;;
51298;SDS011;37382;45.192;9.790;2023-07-13T17:02:31;9.43;;;2.60;;
51298;SDS011;37382;45.192;9.790;2023-07-13T17:05:00;18.15;;;3.55;;
51298;SDS011;37382;45.192;9.790;2023-07-13T17:07:30;14.25;;;3.30;;
51298;SDS011;37382;45.192;9.790;2023-07-13T17:09:58;9.85;;;3.40;;
51298;SDS011;37382;45.192;9.790;2023-07-13T17:12:27;16.50;;;3.40;;
51298;SDS011;37382;45.192;9.790;2023-07-13T17:14:54;13.73;;;3.10;;
51298;SDS011;37382;45.192;9.790;2023-07-13T17:17:29;18.92;;;3.50;;
51298;SDS011;37382;45.192;9.790;2023-07-13T17:20:05;9.45;;;3.25;;
51298;SDS011;37382;45.192;9.790;2023-07-13T17:22:41;22.95;;;3.60;;
51298;SDS011;37382;45.192;9.790;2023-07-13T17:25:10;17.50;;;3.45;;
51298;SDS011;37382;45.192;9.790;2023-07-13T17:27:40;13.38;;;3.20;;
51298;SDS011;37382;45.192;9.790;2023-07-13T17:30:17;13.00;;;2.78;;
51298;SDS011;37382;45.192;9.790;2023-07-13T17:32:47;13.98;;;3.20;;
51298;SDS011;37382;45.192;9.790;2023-07-13T17:35:21;13.98;;;3.08;;
51298;SDS011;37382;45.192;9.790;2023-07-13T17:37:58;15.02;;;3.28;;
51298;SDS011;37382;45.192;9.790;2023-07-13T17:40:27;13.48;;;3.70;;
51298;SDS011;37382;45.192;9.790;2023-07-13T17:42:55;11.90;;;3.35;;
51298;SDS011;37382;45.192;9.790;2023-07-13T17:45:25;15.73;;;3.55;;
51298;SDS011;37382;45.192;9.790;2023-07-13T17:47:55;16.00;;;3.15;;
51298;SDS011;37382;45.192;9.790;2023-07-13T17:50:28;17.55;;;3.85;;
51298;SDS011;37382;45.192;9.790;2023-07-13T17:55:34;14.80;;;3.88;;
51298;SDS011;37382;45.192;9.790;2023-07-13T17:58:02;20.48;;;3.90;;
51298;SDS011;37382;45.192;9.790;2023-07-13T18:00:31;10.45;;;3.60;;
51298;SDS011;37382;45.192;9.790;2023-07-13T18:03:05;19.48;;;4.60;;
51298;SDS011;37382;45.192;9.790;2023-07-13T18:05:39;15.65;;;4.72;;
51298;SDS011;37382;45.192;9.790;2023-07-13T18:08:29;15.15;;;4.43;;
51298;SDS011;37382;45.192;9.790;2023-07-13T18:10:58;29.45;;;5.45;;
51298;SDS011;37382;45.192;9.790;2023-07-13T18:15:57;13.70;;;4.20;;
51298;SDS011;37382;45.192;9.790;2023-07-13T18:18:25;17.80;;;4.07;;
51298;SDS011;37382;45.192;9.790;2023-07-13T18:20:55;18.27;;;4.22;;
51298;SDS011;37382;45.192;9.790;2023-07-13T18:23:23;17.73;;;4.60;;
51298;SDS011;37382;45.192;9.790;2023-07-13T18:25:51;21.17;;;4.53;;
51298;SDS011;37382;45.192;9.790;2023-07-13T18:28:23;11.70;;;4.68;;
51298;SDS011;37382;45.192;9.790;2023-07-13T18:30:51;14.75;;;4.32;;
51298;SDS011;37382;45.192;9.790;2023-07-13T18:33:24;12.25;;;3.60;;
51298;SDS011;37382;45.192;9.790;2023-07-13T18:36:01;20.92;;;3.38;;
51298;SDS011;37382;45.192;9.790;2023-07-13T18:38:31;12.25;;;4.07;;
51298;SDS011;37382;45.192;9.790;2023-07-13T18:40:59;9.40;;;3.83;;
51298;SDS011;37382;45.192;9.790;2023-07-13T18:43:27;14.38;;;4.25;;
51298;SDS011;37382;45.192;9.790;2023-07-13T18:45:56;8.57;;;4.03;;
51298;SDS011;37382;45.192;9.790;2023-07-13T18:48:28;8.43;;;4.25;;
51298;SDS011;37382;45.192;9.790;2023-07-13T18:50:59;13.52;;;3.60;;
51298;SDS011;37382;45.192;9.790;2023-07-13T18:53:27;8.07;;;3.83;;
51298;SDS011;37382;45.192;9.790;2023-07-13T18:55:55;11.73;;;3.33;;
51298;SDS011;37382;45.192;9.790;2023-07-13T18:58:23;9.07;;;3.38;;
51298;SDS011;37382;45.192;9.790;2023-07-13T19:00:51;14.68;;;3.15;;
51298;SDS011;37382;45.192;9.790;2023-07-13T19:03:26;5.47;;;2.90;;
51298;SDS011;37382;45.192;9.790;2023-07-13T19:05:58;4.22;;;2.60;;
51298;SDS011;37382;45.192;9.790;2023-07-13T19:08:27;14.73;;;3.60;;
51298;SDS011;37382;45.192;9.790;2023-07-13T19:10:55;7.68;;;3.22;;
51298;SDS011;37382;45.192;9.790;2023-07-13T19:13:25;11.43;;;2.85;;
51298;SDS011;37382;45.192;9.790;2023-07-13T19:15:57;5.68;;;2.47;;
51298;SDS011;37382;45.192;9.790;2023-07-13T19:18:25;13.43;;;2.85;;
51298;SDS011;37382;45.192;9.790;2023-07-13T19:20:54;8.25;;;3.03;;
51298;SDS011;37382;45.192;9.790;2023-07-13T19:33:49;10.35;;;3.50;;
51298;SDS011;37382;45.192;9.790;2023-07-13T19:36:19;6.43;;;2.40;;
51298;SDS011;37382;45.192;9.790;2023-07-13T19:38:51;9.40;;;2.45;;
51298;SDS011;37382;45.192;9.790;2023-07-13T19:41:20;5.80;;;2.38;;
51298;SDS011;37382;45.192;9.790;2023-07-13T19:43:50;6.07;;;2.20;;
51298;SDS011;37382;45.192;9.790;2023-07-13T19:48:52;7.55;;;2.50;;
51298;SDS011;37382;45.192;9.790;2023-07-13T19:51:20;6.45;;;2.65;;
51298;SDS011;37382;45.192;9.790;2023-07-13T19:53:52;4.80;;;2.50;;
51298;SDS011;37382;45.192;9.790;2023-07-13T19:56:22;7.43;;;2.80;;